createdAt,value
2023-05-12T00:01:31.120Z,8.27
2023-05-12T00:06:30.396Z,7.99
2023-05-12T00:11:29.662Z,8.27
2023-05-12T00:16:28.938Z,7.99
2023-05-12T00:21:28.197Z,7.99
2023-05-12T00:26:28.477Z,8.27
2023-05-12T00:31:26.747Z,8.27
2023-05-12T00:36:25.969Z,8.27
2023-05-12T00:41:25.209Z,7.34
2023-05-12T00:46:25.486Z,7.99
2023-05-12T00:51:23.694Z,7.99
2023-05-12T00:56:22.940Z,7.99
2023-05-12T01:01:22.199Z,7.71
2023-05-12T01:06:21.420Z,7.99
2023-05-12T01:11:21.641Z,7.71
2023-05-12T01:16:19.846Z,7.71
2023-05-12T01:21:19.110Z,7.71
2023-05-12T01:26:19.354Z,7.99
2023-05-12T01:31:21.151Z,8.27
2023-05-12T01:36:17.730Z,7.34
2023-05-12T01:41:15.980Z,7.34
2023-05-12T01:46:15.280Z,7.99
2023-05-12T01:51:13.504Z,7.99
2023-05-12T01:56:14.776Z,7.99
2023-05-12T02:01:13.061Z,7.99
2023-05-12T02:06:13.304Z,7.34
2023-05-12T02:11:12.565Z,7.34
2023-05-12T02:16:10.843Z,7.34
2023-05-12T02:21:10.145Z,7.34
2023-05-12T02:26:09.413Z,7.99
2023-05-12T02:31:09.684Z,7.99
2023-05-12T02:36:08.959Z,7.34
2023-05-12T02:41:08.233Z,7.34
2023-05-12T02:46:07.506Z,7.34
2023-05-12T02:51:06.727Z,7.34
2023-05-12T02:56:05.939Z,7.34
2023-05-12T03:01:10.569Z,7.62
2023-05-12T03:06:05.436Z,7.34
2023-05-12T03:11:02.706Z,7.62
2023-05-12T03:16:05.984Z,7.07
2023-05-12T03:21:01.219Z,7.34
2023-05-12T03:26:02.509Z,7.62
2023-05-12T03:30:59.977Z,7.34
2023-05-12T03:35:59.079Z,7.62
2023-05-12T03:40:59.329Z,7.62
2023-05-12T03:45:57.619Z,7.34
2023-05-12T03:50:55.839Z,7.62
2023-05-12T03:55:57.090Z,7.62
2023-05-12T04:00:56.316Z,7.62
2023-05-12T04:05:54.706Z,7.62
2023-05-12T04:10:52.764Z,7.34
2023-05-12T04:15:57.192Z,7.34
2023-05-12T04:20:52.193Z,7.34
2023-05-12T04:25:51.424Z,7.34
2023-05-12T04:30:51.675Z,7.62
2023-05-12T04:35:49.928Z,7.34
2023-05-12T04:40:49.183Z,7.34
2023-05-12T04:45:49.488Z,7.62
2023-05-12T04:50:47.687Z,7.89
2023-05-12T04:55:47.918Z,7.62
2023-05-12T05:00:48.148Z,7.34
2023-05-12T05:05:45.368Z,7.71
2023-05-12T05:10:44.620Z,7.34
2023-05-12T05:15:43.888Z,7.99
2023-05-12T05:20:45.283Z,7.99
2023-05-12T05:25:43.256Z,7.34
2023-05-12T05:30:41.529Z,7.34
2023-05-12T05:35:40.791Z,7.34
2023-05-12T05:40:52.334Z,7.99
2023-05-12T05:45:40.389Z,7.99
2023-05-12T05:50:38.645Z,7.99
2023-05-12T05:55:37.915Z,8.27
2023-05-12T06:00:39.180Z,7.99
2023-05-12T06:05:36.324Z,7.34
2023-05-12T06:10:35.633Z,7.34
2023-05-12T06:15:35.912Z,7.99
2023-05-12T06:20:34.200Z,7.99
2023-05-12T06:25:33.528Z,7.99
2023-05-12T06:30:34.827Z,7.99
2023-05-12T06:35:32.115Z,7.71
2023-05-12T06:40:31.409Z,7.71
2023-05-12T06:45:31.729Z,7.71
2023-05-12T06:50:31.021Z,7.41
2023-05-12T06:55:29.318Z,7.71
2023-05-12T07:00:28.636Z,7.71
2023-05-12T07:05:27.962Z,7.41
2023-05-12T07:10:28.251Z,7.41
2023-05-12T07:15:26.531Z,7.71
2023-05-12T07:20:25.900Z,7.41
2023-05-12T07:25:25.145Z,7.12
2023-05-12T07:30:24.247Z,7.41
2023-05-12T07:35:25.576Z,7.12
2023-05-12T07:40:23.872Z,6.82
2023-05-12T07:45:22.220Z,7.12
2023-05-12T07:50:21.511Z,7.43
2023-05-12T07:55:21.148Z,6.82
2023-05-12T08:00:19.083Z,6.82
2023-05-12T08:05:20.630Z,7.12
2023-05-12T08:10:19.634Z,7.73
2023-05-12T08:15:19.100Z,7.73
2023-05-12T08:20:19.287Z,7.43
2023-05-12T08:25:16.591Z,7.43
2023-05-12T08:30:15.870Z,7.11
2023-05-12T08:35:15.192Z,7.73
2023-05-12T08:40:14.529Z,7.73
2023-05-12T08:45:14.831Z,7.43
2023-05-12T08:50:13.146Z,7.43
2023-05-12T08:55:14.453Z,7.73
2023-05-12T09:00:11.761Z,7.73
2023-05-12T09:05:12.101Z,7.73
2023-05-12T09:10:19.657Z,7.73
2023-05-12T09:15:09.594Z,7.73
2023-05-12T09:20:17.696Z,7.73
2023-05-12T09:25:07.893Z,7.73
2023-05-12T09:30:07.233Z,8.04
2023-05-12T09:35:06.545Z,8.34
2023-05-12T09:40:06.900Z,8.04
2023-05-12T09:45:06.028Z,8.34
2023-05-12T09:50:05.407Z,8.34
2023-05-12T09:55:04.520Z,8.04
2023-05-12T10:00:06.013Z,8.34
2023-05-12T10:05:03.223Z,8.04
2023-05-12T10:10:01.380Z,8.34
2023-05-12T10:15:01.599Z,8.04
2023-05-12T10:20:00.882Z,8.34
2023-05-12T10:24:59.196Z,8.04
2023-05-12T10:29:58.508Z,8.04
2023-05-12T10:34:59.229Z,8.04
2023-05-12T10:39:59.133Z,7.73
2023-05-12T10:44:56.582Z,7.73
2023-05-12T10:49:55.699Z,7.73
2023-05-12T10:54:55.067Z,7.73
2023-05-12T10:59:55.433Z,7.73
2023-05-12T11:04:53.547Z,7.43
2023-05-12T11:09:57.671Z,7.43
2023-05-12T11:14:52.798Z,8.34
2023-05-12T11:19:53.047Z,8.02
2023-05-12T11:24:50.309Z,7.11
2023-05-12T11:29:49.554Z,7.11
2023-05-12T11:34:48.801Z,7.43
2023-05-12T11:39:48.054Z,7.11
2023-05-12T11:44:48.407Z,8.02
2023-05-12T11:49:46.553Z,8.02
2023-05-12T11:54:45.797Z,8.02
2023-05-12T11:59:46.040Z,7.11
2023-05-12T12:04:47.437Z,8.02
2023-05-12T12:09:44.466Z,8.02
2023-05-12T12:14:42.733Z,8.02
2023-05-12T12:19:42.986Z,8.02
2023-05-12T12:24:42.221Z,7.70
2023-05-12T12:29:40.424Z,7.70
2023-05-12T12:34:40.667Z,7.70
2023-05-12T12:39:39.905Z,7.70
2023-05-12T12:44:40.203Z,7.70
2023-05-12T12:49:37.426Z,7.70
2023-05-12T12:54:37.705Z,7.70
2023-05-12T12:59:36.925Z,7.70
2023-05-12T13:04:36.175Z,7.70
2023-05-12T13:09:34.421Z,7.70
2023-05-12T13:14:34.681Z,7.70
2023-05-12T13:19:36.509Z,7.70
2023-05-12T13:24:32.233Z,7.70
2023-05-12T13:29:31.479Z,7.70
2023-05-12T13:34:30.729Z,7.70
2023-05-12T13:39:29.974Z,7.70
2023-05-12T13:44:29.241Z,8.02
2023-05-12T13:49:29.493Z,7.70
2023-05-12T13:54:27.745Z,8.02
2023-05-12T13:59:26.983Z,8.02
2023-05-12T14:04:25.201Z,7.70
2023-05-12T14:09:25.455Z,7.70
2023-05-12T14:14:26.719Z,8.02
2023-05-12T14:19:23.971Z,7.70
2023-05-12T14:24:24.197Z,7.70
2023-05-12T14:29:23.446Z,7.70
2023-05-12T14:34:21.700Z,7.70
2023-05-12T14:39:20.965Z,7.37
2023-05-12T14:44:20.246Z,7.37
2023-05-12T14:49:19.516Z,7.37
2023-05-12T14:54:25.133Z,7.37
2023-05-12T14:59:18.086Z,7.37
2023-05-12T15:04:18.388Z,7.37
2023-05-12T15:09:17.621Z,7.37
2023-05-12T15:14:15.837Z,7.37
2023-05-12T15:19:16.149Z,7.37
2023-05-12T15:24:15.340Z,7.37
2023-05-12T15:29:14.556Z,7.37
2023-05-12T15:34:13.768Z,7.37
2023-05-12T15:39:12.068Z,7.37
2023-05-12T15:44:11.339Z,7.37
2023-05-12T15:49:10.546Z,7.70
2023-05-12T15:54:10.806Z,8.02
2023-05-12T15:59:11.123Z,8.34
2023-05-12T16:04:08.411Z,8.65
2023-05-12T16:09:07.843Z,8.65
2023-05-12T16:14:06.922Z,8.96
2023-05-12T16:19:07.275Z,8.96
2023-05-12T16:24:06.270Z,8.34
2023-05-12T16:29:03.575Z,8.34
2023-05-12T16:34:04.870Z,8.34
2023-05-12T16:39:03.151Z,8.65
2023-05-12T16:44:02.637Z,8.96
2023-05-12T16:49:02.842Z,8.63
2023-05-12T16:54:00.877Z,8.63
2023-05-12T16:59:01.290Z,8.63
2023-05-12T17:04:00.522Z,8.63
2023-05-12T17:08:59.646Z,8.63
2023-05-12T17:13:59.222Z,8.96
2023-05-12T17:23:56.400Z,9.25
2023-05-12T17:28:56.751Z,8.61
2023-05-12T17:33:55.844Z,9.18
2023-05-12T17:38:54.020Z,9.18
2023-05-12T17:43:54.541Z,8.84
2023-05-12T17:48:52.373Z,8.84
2023-05-12T17:53:51.610Z,8.84
2023-05-12T17:58:50.929Z,8.49
2023-05-12T18:03:50.209Z,8.49
2023-05-12T18:08:51.441Z,8.49
2023-05-12T18:13:49.598Z,9.39
2023-05-12T18:18:47.880Z,9.03
2023-05-12T18:23:47.938Z,9.03
2023-05-12T18:28:46.145Z,9.03
2023-05-12T18:33:46.412Z,8.67
2023-05-12T18:38:44.688Z,8.29
2023-05-12T18:43:44.973Z,7.91
2023-05-12T18:48:42.283Z,8.29
2023-05-12T18:53:42.310Z,8.29
2023-05-12T18:58:41.615Z,8.29
2023-05-12T19:03:41.948Z,8.67
2023-05-12T19:08:40.252Z,8.29
2023-05-12T19:13:39.524Z,8.67
2023-05-12T19:18:39.977Z,9.03
2023-05-12T19:23:38.005Z,8.67
2023-05-12T19:28:37.222Z,8.67
2023-05-12T19:33:37.491Z,8.29
2023-05-12T19:38:35.725Z,8.29
2023-05-12T19:43:37.037Z,8.29
2023-05-12T19:48:34.268Z,8.67
2023-05-12T19:53:34.486Z,8.29
2023-05-12T19:58:32.682Z,8.67
2023-05-12T20:03:31.982Z,9.19
2023-05-12T20:08:31.196Z,8.67
2023-05-12T20:13:30.382Z,9.03
2023-05-12T20:18:29.554Z,9.03
2023-05-12T20:23:30.847Z,7.77
2023-05-12T20:28:30.110Z,8.14
2023-05-12T20:33:27.317Z,8.49
2023-05-12T20:38:25.530Z,8.49
2023-05-12T20:43:25.823Z,8.49
2023-05-12T20:48:25.263Z,8.49
2023-05-12T20:53:26.176Z,8.84
2023-05-12T20:58:23.351Z,8.84
2023-05-12T21:03:23.292Z,8.49
2023-05-12T21:08:22.762Z,8.49
2023-05-12T21:13:20.856Z,8.84
2023-05-12T21:18:20.173Z,7.94
2023-05-12T21:23:20.503Z,8.84
2023-05-12T21:28:19.218Z,8.84
2023-05-12T21:33:18.959Z,8.49
2023-05-12T21:38:17.294Z,8.84
2023-05-12T21:43:16.572Z,8.27
2023-05-12T21:48:16.928Z,8.84
2023-05-12T21:53:15.235Z,8.84
2023-05-12T21:58:14.513Z,8.84
2023-05-12T22:03:13.924Z,8.84
2023-05-12T22:08:14.275Z,8.84
2023-05-12T22:13:13.353Z,8.49
2023-05-12T22:18:11.633Z,8.84
2023-05-12T22:23:10.901Z,9.39
2023-05-12T22:28:11.235Z,8.84
2023-05-12T22:33:09.538Z,8.84
2023-05-12T22:38:08.653Z,8.84
2023-05-12T22:43:11.067Z,9.74
2023-05-12T22:48:08.366Z,9.03
2023-05-12T22:53:07.349Z,8.67
2023-05-12T22:58:07.710Z,9.56
2023-05-12T23:03:04.843Z,9.03
2023-05-12T23:08:04.211Z,9.39
2023-05-12T23:13:04.426Z,8.84
2023-05-12T23:18:02.608Z,8.84
2023-05-12T23:23:01.719Z,9.18
2023-05-12T23:28:02.124Z,8.61
2023-05-12T23:33:00.353Z,8.61
2023-05-12T23:37:59.481Z,8.61
2023-05-12T23:42:59.706Z,8.93
2023-05-12T23:47:57.870Z,8.93
2023-05-12T23:52:58.043Z,8.34
2023-05-12T23:57:56.354Z,8.34
